Aviation Digital Data Service (ADDS)

Output produced by TAFs form (2021 UTC 18 February 2018)
found at http://aviationweather.gov/adds/tafs/
 
KGUP 181735Z 1818/1918 22017G25KT P6SM FEW200 
     FM182000 23025G35KT P6SM SCT200 
     FM190300 22021G30KT P6SM OVC080 
     FM190900 22021G30KT P6SM OVC030 
     FM191600 22024G33KT P6SM SCT030 OVC100